createdAt,value
2023-10-09T00:01:06.360Z,13.10
2023-10-09T00:03:33.270Z,13.10
2023-10-09T00:08:32.229Z,13.00
2023-10-09T00:11:14.240Z,13.00
2023-10-09T00:13:50.119Z,12.90
2023-10-09T00:16:34.445Z,12.90
2023-10-09T00:19:15.572Z,12.90
2023-10-09T00:21:42.880Z,12.90
2023-10-09T00:24:14.775Z,12.90
2023-10-09T00:26:46.499Z,12.80
2023-10-09T00:29:22.851Z,12.80
2023-10-09T00:35:26.329Z,12.80
2023-10-09T00:37:57.737Z,12.80
2023-10-09T00:40:29.524Z,12.80
2023-10-09T00:42:56.943Z,12.70
2023-10-09T00:45:29.317Z,12.70
2023-10-09T00:49:28.542Z,12.60
2023-10-09T00:51:57.870Z,12.50
2023-10-09T00:54:28.974Z,12.50
2023-10-09T00:56:59.962Z,12.50
2023-10-09T00:59:26.780Z,12.50
2023-10-09T01:02:05.407Z,12.50
2023-10-09T01:04:38.039Z,12.50
2023-10-09T01:07:17.133Z,12.50
2023-10-09T01:09:45.181Z,12.50
2023-10-09T01:12:18.189Z,12.50
2023-10-09T01:14:45.797Z,12.50
2023-10-09T01:17:13.036Z,12.50
2023-10-09T01:19:39.836Z,12.60
2023-10-09T01:22:14.202Z,12.50
2023-10-09T01:24:41.617Z,12.50
2023-10-09T01:27:17.505Z,12.50
2023-10-09T01:29:45.299Z,12.50
2023-10-09T01:32:17.977Z,12.50
2023-10-09T01:36:35.193Z,12.50
2023-10-09T01:39:09.546Z,12.50
2023-10-09T01:41:39.106Z,12.50
2023-10-09T01:44:11.378Z,12.50
2023-10-09T01:48:16.187Z,12.60
2023-10-09T01:50:43.381Z,12.60
2023-10-09T01:53:10.333Z,12.60
2023-10-09T01:55:40.820Z,12.60
2023-10-09T01:58:25.233Z,12.60
2023-10-09T02:01:02.858Z,12.60
2023-10-09T02:04:15.761Z,12.60
2023-10-09T02:06:42.994Z,12.60
2023-10-09T02:09:20.685Z,12.60
2023-10-09T02:11:47.526Z,12.70
2023-10-09T02:14:20.429Z,12.70
2023-10-09T02:18:27.924Z,12.70
2023-10-09T02:21:00.845Z,12.70
2023-10-09T02:23:51.041Z,12.70
2023-10-09T02:26:41.058Z,12.70
2023-10-09T02:30:42.516Z,12.60
2023-10-09T02:33:10.495Z,12.60
2023-10-09T02:35:40.409Z,12.60
2023-10-09T02:38:15.590Z,12.50
2023-10-09T02:43:35.068Z,12.50
2023-10-09T02:46:15.035Z,12.50
2023-10-09T02:48:46.633Z,12.50
2023-10-09T02:51:18.624Z,12.50
2023-10-09T02:56:13.814Z,12.50
2023-10-09T02:58:41.367Z,12.60
2023-10-09T03:01:14.426Z,12.60
2023-10-09T03:05:29.702Z,12.60
2023-10-09T03:07:56.567Z,12.60
2023-10-09T03:10:23.651Z,12.60
2023-10-09T03:15:21.627Z,12.60
2023-10-09T03:17:51.486Z,12.50
2023-10-09T03:20:21.373Z,12.50
2023-10-09T03:24:36.452Z,12.50
2023-10-09T03:27:04.243Z,12.50
2023-10-09T03:31:33.025Z,12.40
2023-10-09T03:34:00.445Z,12.40
2023-10-09T03:36:31.878Z,12.40
2023-10-09T03:41:15.491Z,12.30
2023-10-09T03:43:46.962Z,12.30
2023-10-09T03:46:57.698Z,12.30
2023-10-09T03:51:38.492Z,12.30
2023-10-09T03:54:08.954Z,12.30
2023-10-09T03:59:43.701Z,12.30
2023-10-09T04:02:10.512Z,12.30
2023-10-09T04:04:37.391Z,12.30
2023-10-09T04:07:04.642Z,12.30
2023-10-09T04:09:40.763Z,12.30
2023-10-09T04:12:20.939Z,12.30
2023-10-09T04:15:02.034Z,12.30
2023-10-09T04:17:35.622Z,12.30
2023-10-09T04:20:32.598Z,12.40
2023-10-09T04:26:48.277Z,12.40
2023-10-09T04:29:28.464Z,12.40
2023-10-09T04:37:46.303Z,12.50
2023-10-09T04:40:31.591Z,12.50
2023-10-09T04:43:06.958Z,12.60
2023-10-09T04:47:39.912Z,12.60
2023-10-09T04:50:19.794Z,12.60
2023-10-09T04:52:53.155Z,12.60
2023-10-09T04:55:20.583Z,12.60
2023-10-09T04:57:49.907Z,12.60
2023-10-09T05:00:36.462Z,12.70
2023-10-09T05:03:13.841Z,12.70
2023-10-09T05:05:44.436Z,12.70
2023-10-09T05:08:31.168Z,12.70
2023-10-09T05:11:02.361Z,12.70
2023-10-09T05:13:42.841Z,12.70
2023-10-09T05:16:20.994Z,12.70
2023-10-09T05:18:58.611Z,12.80
2023-10-09T05:21:34.049Z,12.70
2023-10-09T05:24:13.252Z,12.80
2023-10-09T05:26:50.423Z,12.80
2023-10-09T05:29:20.497Z,12.80
2023-10-09T05:32:09.071Z,12.90
2023-10-09T05:34:37.819Z,12.90
2023-10-09T05:37:23.858Z,13.00
2023-10-09T05:40:03.191Z,13.00
2023-10-09T05:42:37.969Z,13.00
2023-10-09T05:45:18.255Z,13.10
2023-10-09T05:48:28.705Z,13.10
2023-10-09T05:51:10.600Z,13.10
2023-10-09T05:53:46.829Z,13.10
2023-10-09T05:56:32.441Z,13.20
2023-10-09T05:59:18.027Z,13.20
2023-10-09T06:01:57.317Z,13.20
2023-10-09T06:04:35.183Z,13.20
2023-10-09T06:07:13.611Z,13.30
2023-10-09T06:09:56.619Z,13.30
2023-10-09T06:12:33.638Z,13.30
2023-10-09T06:15:22.895Z,13.40
2023-10-09T06:17:52.635Z,13.50
2023-10-09T06:20:51.892Z,13.60
2023-10-09T06:23:24.775Z,13.60
2023-10-09T06:25:54.368Z,13.60
2023-10-09T06:28:34.046Z,13.70
2023-10-09T06:31:20.996Z,13.80
2023-10-09T06:34:10.421Z,13.80
2023-10-09T06:36:47.193Z,13.90
2023-10-09T06:39:32.935Z,13.90
2023-10-09T06:42:11.020Z,14.00
2023-10-09T06:45:07.352Z,14.10
2023-10-09T06:47:43.499Z,14.20
2023-10-09T06:50:23.262Z,14.30
2023-10-09T06:52:58.902Z,14.40
2023-10-09T06:55:49.225Z,14.40
2023-10-09T06:58:29.568Z,14.50
2023-10-09T07:00:59.789Z,14.50
2023-10-09T07:03:37.682Z,13.00
2023-10-09T07:06:25.086Z,14.50
2023-10-09T07:09:08.204Z,14.60
2023-10-09T07:11:41.587Z,14.70
2023-10-09T07:14:29.121Z,14.80
2023-10-09T07:17:16.905Z,14.80
2023-10-09T07:19:44.359Z,14.90
2023-10-09T07:22:37.268Z,15.00
2023-10-09T07:25:15.986Z,15.10
2023-10-09T07:27:46.467Z,15.30
2023-10-09T07:30:30.140Z,15.40
2023-10-09T07:33:06.715Z,15.40
2023-10-09T07:35:48.044Z,15.60
2023-10-09T07:38:21.742Z,15.70
2023-10-09T07:41:21.077Z,15.90
2023-10-09T07:43:48.162Z,15.90
2023-10-09T07:46:31.604Z,16.10
2023-10-09T07:49:01.372Z,16.10
2023-10-09T07:51:33.989Z,16.10
2023-10-09T07:54:10.122Z,16.30
2023-10-09T07:56:47.108Z,16.30
2023-10-09T07:59:15.025Z,16.40
2023-10-09T08:02:03.581Z,16.50
2023-10-09T08:04:41.111Z,16.70
2023-10-09T08:08:08.004Z,16.90
2023-10-09T08:10:16.713Z,17.20
2023-10-09T08:12:49.784Z,17.40
2023-10-09T08:15:20.271Z,17.80
2023-10-09T08:18:04.531Z,17.80
2023-10-09T08:20:50.511Z,18.00
2023-10-09T08:23:30.114Z,18.10
2023-10-09T08:26:23.926Z,18.20
2023-10-09T08:28:51.632Z,18.20
2023-10-09T08:31:46.741Z,18.30
2023-10-09T08:35:00.408Z,18.40
2023-10-09T08:37:14.356Z,18.40
2023-10-09T08:39:41.236Z,18.40
2023-10-09T08:42:09.277Z,18.40
2023-10-09T08:44:36.101Z,18.60
2023-10-09T08:47:02.918Z,18.60
2023-10-09T08:49:29.910Z,18.80
2023-10-09T08:51:57.285Z,18.80
2023-10-09T08:54:24.230Z,18.80
2023-10-09T08:56:51.610Z,18.90
2023-10-09T08:59:21.807Z,18.90
2023-10-09T09:01:55.216Z,19.00
2023-10-09T09:04:41.623Z,19.00
2023-10-09T09:07:27.693Z,19.00
2023-10-09T09:09:58.499Z,18.90
2023-10-09T09:12:25.448Z,19.00
2023-10-09T09:14:52.712Z,19.00
2023-10-09T09:17:31.965Z,19.10
2023-10-09T09:19:59.959Z,19.10
2023-10-09T09:22:27.836Z,19.30
2023-10-09T09:25:10.710Z,19.40
2023-10-09T09:27:57.022Z,19.50
2023-10-09T09:30:25.279Z,19.50
2023-10-09T09:33:12.044Z,19.60
2023-10-09T09:35:38.824Z,19.80
2023-10-09T09:38:06.982Z,19.70
2023-10-09T09:40:42.517Z,19.60
2023-10-09T09:43:22.791Z,19.50
2023-10-09T09:45:52.080Z,19.50
2023-10-09T09:48:18.952Z,19.40
2023-10-09T09:50:45.829Z,19.40
2023-10-09T09:53:18.970Z,19.40
2023-10-09T09:55:59.587Z,19.50
2023-10-09T09:58:45.600Z,19.50
2023-10-09T10:01:25.973Z,19.60
2023-10-09T10:03:59.266Z,19.80
2023-10-09T10:06:29.979Z,19.90
2023-10-09T10:08:56.811Z,20.00
2023-10-09T10:11:43.612Z,20.10
2023-10-09T10:14:12.120Z,20.20
2023-10-09T10:17:07.074Z,20.30
2023-10-09T10:20:02.560Z,20.50
2023-10-09T10:22:31.017Z,20.70
2023-10-09T10:25:10.646Z,20.90
2023-10-09T10:27:52.445Z,21.10
2023-10-09T10:30:31.396Z,21.20
2023-10-09T10:33:11.159Z,21.40
2023-10-09T10:35:46.319Z,21.50
2023-10-09T10:38:38.258Z,21.50
2023-10-09T10:41:12.780Z,21.60
2023-10-09T10:43:53.742Z,21.60
2023-10-09T10:46:24.751Z,21.60
2023-10-09T10:49:00.213Z,21.60
2023-10-09T10:51:36.323Z,21.60
2023-10-09T10:54:23.308Z,21.50
2023-10-09T10:56:50.232Z,21.40
2023-10-09T10:59:24.035Z,21.40
2023-10-09T11:01:54.894Z,21.30
2023-10-09T11:04:34.929Z,21.20
2023-10-09T11:07:13.960Z,21.10
2023-10-09T11:10:05.515Z,21.10
2023-10-09T11:12:54.292Z,21.00
2023-10-09T11:15:47.387Z,20.90
2023-10-09T11:18:20.733Z,20.80
2023-10-09T11:21:00.139Z,20.70
2023-10-09T11:23:35.673Z,20.60
2023-10-09T11:26:24.933Z,20.50
2023-10-09T11:29:16.668Z,20.50
2023-10-09T11:31:58.861Z,20.40
2023-10-09T11:34:32.936Z,20.40
2023-10-09T11:37:00.939Z,20.30
2023-10-09T11:39:51.885Z,20.30
2023-10-09T11:42:39.011Z,20.40
2023-10-09T11:45:25.401Z,20.40
2023-10-09T11:48:04.327Z,20.30
2023-10-09T11:50:44.809Z,20.40
2023-10-09T11:53:34.546Z,20.40
2023-10-09T11:56:01.695Z,20.50
2023-10-09T11:58:28.712Z,20.50
2023-10-09T12:01:19.415Z,20.50
2023-10-09T12:03:50.986Z,20.50
2023-10-09T12:06:20.256Z,20.50
2023-10-09T12:08:50.228Z,20.50
2023-10-09T12:11:24.973Z,20.50
2023-10-09T12:13:57.464Z,20.50
2023-10-09T12:16:29.437Z,20.40
2023-10-09T12:18:56.885Z,20.40
2023-10-09T12:21:24.599Z,20.30
2023-10-09T12:23:51.602Z,20.30
2023-10-09T12:26:18.424Z,20.20
2023-10-09T12:28:47.375Z,20.10
2023-10-09T12:31:20.960Z,20.10
2023-10-09T12:33:48.821Z,20.10
2023-10-09T12:36:20.984Z,20.00
2023-10-09T12:38:53.261Z,20.10
2023-10-09T12:41:20.961Z,20.10
2023-10-09T12:43:51.006Z,20.10
2023-10-09T12:46:18.013Z,20.20
2023-10-09T12:48:48.453Z,20.30
2023-10-09T12:51:18.732Z,20.30
2023-10-09T12:53:46.825Z,20.30
2023-10-09T12:56:13.827Z,20.40
2023-10-09T12:58:43.475Z,20.40
2023-10-09T13:01:11.258Z,20.50
2023-10-09T13:03:39.811Z,20.50
2023-10-09T13:06:13.006Z,20.50
2023-10-09T13:08:42.023Z,20.40
2023-10-09T13:11:13.411Z,20.40
2023-10-09T13:13:41.347Z,20.40
2023-10-09T13:16:13.825Z,20.40
2023-10-09T13:18:41.756Z,20.40
2023-10-09T13:21:08.677Z,20.40
2023-10-09T13:23:40.571Z,20.40
2023-10-09T13:26:31.469Z,20.40
2023-10-09T13:29:00.975Z,20.40
2023-10-09T13:31:28.465Z,20.40
2023-10-09T13:34:00.182Z,20.40
2023-10-09T13:36:36.377Z,20.40
2023-10-09T13:39:23.545Z,20.40
2023-10-09T13:41:59.020Z,20.40
2023-10-09T13:44:29.755Z,20.50
2023-10-09T13:46:57.440Z,20.60
2023-10-09T13:49:24.472Z,20.60
2023-10-09T13:51:51.336Z,20.60
2023-10-09T13:54:41.350Z,20.70
2023-10-09T13:57:09.019Z,20.70
2023-10-09T13:59:36.770Z,20.80
2023-10-09T14:02:11.262Z,20.80
2023-10-09T14:04:38.737Z,20.80
2023-10-09T14:07:09.410Z,20.90
2023-10-09T14:09:44.968Z,20.80
2023-10-09T14:12:12.378Z,20.90
2023-10-09T14:14:49.878Z,20.90
2023-10-09T14:17:27.160Z,21.00
2023-10-09T14:19:54.971Z,20.90
2023-10-09T14:22:25.769Z,20.90
2023-10-09T14:24:59.038Z,20.90
2023-10-09T14:27:28.307Z,21.00
2023-10-09T14:30:00.557Z,20.90
2023-10-09T14:32:30.315Z,21.00
2023-10-09T14:35:02.178Z,21.00
2023-10-09T14:37:29.398Z,21.00
2023-10-09T14:39:59.940Z,21.10
2023-10-09T14:42:29.127Z,21.10
2023-10-09T14:44:56.934Z,21.10
2023-10-09T14:47:24.137Z,21.10
2023-10-09T14:49:51.415Z,21.10
2023-10-09T14:52:18.443Z,21.10
2023-10-09T14:54:48.111Z,21.00
2023-10-09T14:57:15.370Z,21.00
2023-10-09T14:59:44.308Z,21.00
2023-10-09T15:02:13.631Z,20.90
2023-10-09T15:04:41.115Z,20.90
2023-10-09T15:07:08.216Z,20.90
2023-10-09T15:09:38.266Z,20.80
2023-10-09T15:12:08.632Z,20.80
2023-10-09T15:14:35.861Z,20.70
2023-10-09T15:17:04.062Z,20.70
2023-10-09T15:19:31.205Z,20.60
2023-10-09T15:21:59.946Z,20.50
2023-10-09T15:24:28.628Z,20.50
2023-10-09T15:26:58.947Z,20.40
2023-10-09T15:29:31.478Z,20.40
2023-10-09T15:32:06.174Z,20.30
2023-10-09T15:34:36.193Z,20.30
2023-10-09T15:37:05.113Z,20.20
2023-10-09T15:39:33.131Z,20.20
2023-10-09T15:42:00.051Z,20.20
2023-10-09T15:44:28.288Z,20.10
2023-10-09T15:47:01.076Z,20.10
2023-10-09T15:49:28.794Z,20.00
2023-10-09T15:51:55.712Z,20.00
2023-10-09T15:54:22.631Z,20.00
2023-10-09T15:56:56.213Z,19.90
2023-10-09T15:59:33.833Z,19.90
2023-10-09T16:02:00.707Z,19.80
2023-10-09T16:04:27.656Z,19.80
2023-10-09T16:06:56.733Z,19.80
2023-10-09T16:09:23.916Z,19.70
2023-10-09T16:11:51.136Z,19.70
2023-10-09T16:14:18.016Z,19.70
2023-10-09T16:16:46.394Z,19.60
2023-10-09T16:19:13.349Z,19.60
2023-10-09T16:21:40.578Z,19.50
2023-10-09T16:24:10.112Z,19.50
2023-10-09T16:26:46.551Z,21.60
2023-10-09T16:29:13.574Z,19.30
2023-10-09T16:31:42.074Z,19.30
2023-10-09T16:34:09.678Z,19.20
2023-10-09T16:36:36.983Z,19.20
2023-10-09T16:39:04.493Z,19.10
2023-10-09T16:41:41.217Z,19.00
2023-10-09T16:44:11.413Z,19.00
2023-10-09T16:46:41.080Z,18.80
2023-10-09T16:49:09.693Z,18.80
2023-10-09T16:51:36.644Z,18.70
2023-10-09T16:54:04.396Z,18.70
2023-10-09T16:56:34.562Z,18.60
2023-10-09T16:59:01.880Z,18.50
2023-10-09T17:01:29.436Z,18.40
2023-10-09T17:03:59.233Z,18.40
2023-10-09T17:06:29.967Z,18.30
2023-10-09T17:08:58.207Z,18.20
2023-10-09T17:11:25.889Z,18.10
2023-10-09T17:13:55.833Z,18.10
2023-10-09T17:16:25.194Z,18.00
2023-10-09T17:18:57.206Z,18.00
2023-10-09T17:21:24.615Z,17.90
2023-10-09T17:23:52.228Z,17.90
2023-10-09T17:26:25.202Z,17.80
2023-10-09T17:28:55.212Z,17.80
2023-10-09T17:31:24.552Z,17.70
2023-10-09T17:33:54.955Z,17.60
2023-10-09T17:36:22.017Z,17.60
2023-10-09T17:38:51.983Z,17.50
2023-10-09T17:41:19.631Z,17.40
2023-10-09T17:43:46.487Z,17.30
2023-10-09T17:46:13.392Z,17.30
2023-10-09T17:48:40.402Z,17.30
2023-10-09T17:51:34.943Z,17.20
2023-10-09T17:54:02.310Z,17.10
2023-10-09T17:56:29.109Z,17.10
2023-10-09T17:58:55.913Z,17.00
2023-10-09T18:01:26.013Z,17.00
2023-10-09T18:03:53.381Z,17.00
2023-10-09T18:06:20.287Z,16.90
2023-10-09T18:08:49.657Z,16.90
2023-10-09T18:11:18.511Z,16.90
2023-10-09T18:13:45.496Z,16.80
2023-10-09T18:16:18.927Z,16.80
2023-10-09T18:18:47.996Z,16.70
2023-10-09T18:21:20.628Z,16.70
2023-10-09T18:23:48.977Z,16.60
2023-10-09T18:26:16.083Z,16.60
2023-10-09T18:28:45.957Z,16.60
2023-10-09T18:31:14.664Z,16.50
2023-10-09T18:33:44.517Z,16.50
2023-10-09T18:36:12.525Z,16.40
2023-10-09T18:38:39.821Z,16.40
2023-10-09T18:41:11.909Z,16.30
2023-10-09T18:43:43.261Z,16.30
2023-10-09T18:46:12.791Z,16.20
2023-10-09T18:48:40.104Z,16.20
2023-10-09T18:51:08.735Z,16.20
2023-10-09T18:53:35.837Z,16.10
2023-10-09T18:56:02.784Z,16.10
2023-10-09T18:58:29.733Z,16.10
2023-10-09T19:01:07.664Z,16.10
2023-10-09T19:03:34.606Z,16.00
2023-10-09T19:06:01.395Z,16.00
2023-10-09T19:08:30.636Z,15.90
2023-10-09T19:11:01.621Z,15.90
2023-10-09T19:13:30.608Z,15.80
2023-10-09T19:15:57.539Z,15.80
2023-10-09T19:18:25.821Z,15.80
2023-10-09T19:20:53.990Z,15.80
2023-10-09T19:23:21.179Z,15.80
2023-10-09T19:25:48.273Z,15.80
2023-10-09T19:28:16.289Z,15.80
2023-10-09T19:30:45.377Z,15.80
2023-10-09T19:33:12.808Z,15.80
2023-10-09T19:35:41.976Z,15.80
2023-10-09T19:38:09.348Z,15.80
2023-10-09T19:40:36.563Z,15.80
2023-10-09T19:43:05.730Z,15.80
2023-10-09T19:45:32.523Z,15.80
2023-10-09T19:47:59.397Z,15.80
2023-10-09T19:50:26.586Z,15.80
2023-10-09T19:52:53.635Z,15.80
2023-10-09T19:55:23.627Z,15.90
2023-10-09T19:57:52.578Z,15.90
2023-10-09T20:00:22.848Z,15.90
2023-10-09T20:02:50.779Z,15.90
2023-10-09T20:05:17.790Z,15.90
2023-10-09T20:07:44.779Z,15.90
2023-10-09T20:10:11.624Z,16.00
2023-10-09T20:12:41.156Z,16.00
2023-10-09T20:15:13.502Z,16.00
2023-10-09T20:17:44.478Z,16.00
2023-10-09T20:20:13.097Z,16.00
2023-10-09T20:22:40.662Z,15.90
2023-10-09T20:25:13.791Z,15.80
2023-10-09T20:27:41.821Z,15.80
2023-10-09T20:30:15.981Z,15.70
2023-10-09T20:32:43.228Z,15.70
2023-10-09T20:35:13.369Z,15.70
2023-10-09T20:37:41.509Z,15.60
2023-10-09T20:40:21.765Z,15.60
2023-10-09T20:42:50.277Z,15.60
2023-10-09T20:45:17.907Z,15.60
2023-10-09T20:47:46.679Z,15.60
2023-10-09T20:50:16.226Z,15.60
2023-10-09T20:52:47.368Z,15.60
2023-10-09T20:55:20.122Z,15.60
2023-10-09T20:57:47.757Z,15.60
2023-10-09T21:00:20.361Z,15.50
2023-10-09T21:02:52.921Z,15.50
2023-10-09T21:05:20.780Z,15.50
2023-10-09T21:07:48.379Z,15.50
2023-10-09T21:10:15.978Z,15.50
2023-10-09T21:12:43.452Z,15.50
2023-10-09T21:15:11.301Z,15.50
2023-10-09T21:17:44.682Z,15.40
2023-10-09T21:20:20.125Z,15.40
2023-10-09T21:22:50.333Z,15.40
2023-10-09T21:25:21.544Z,15.40
2023-10-09T21:27:49.328Z,15.40
2023-10-09T21:31:35.941Z,15.40
2023-10-09T21:34:06.051Z,15.40
2023-10-09T21:36:35.208Z,15.30
2023-10-09T21:41:03.056Z,15.30
2023-10-09T21:43:32.245Z,15.30
2023-10-09T21:45:59.268Z,15.20
2023-10-09T21:48:26.199Z,15.20
2023-10-09T21:50:53.006Z,15.20
2023-10-09T21:53:19.800Z,15.20
2023-10-09T21:55:46.692Z,15.20
2023-10-09T21:58:13.636Z,15.20
2023-10-09T22:00:40.530Z,15.20
2023-10-09T22:03:11.531Z,15.20
2023-10-09T22:05:44.792Z,15.30
2023-10-09T22:08:12.370Z,15.30
2023-10-09T22:10:39.854Z,15.30
2023-10-09T22:13:07.683Z,15.40
2023-10-09T22:15:35.234Z,15.40
2023-10-09T22:18:02.168Z,15.40
2023-10-09T22:20:31.471Z,15.40
2023-10-09T22:22:58.704Z,15.50
2023-10-09T22:25:26.167Z,15.50
2023-10-09T22:27:59.801Z,15.50
2023-10-09T22:30:30.535Z,15.60
2023-10-09T22:33:03.827Z,15.60
2023-10-09T22:35:34.978Z,15.60
2023-10-09T22:38:09.092Z,15.60
2023-10-09T22:40:40.039Z,15.60
2023-10-09T22:43:10.260Z,15.60
2023-10-09T22:45:43.716Z,15.60
2023-10-09T22:48:15.414Z,15.60
2023-10-09T22:50:59.617Z,15.60
2023-10-09T22:53:38.995Z,15.60
2023-10-09T22:56:17.380Z,15.60
2023-10-09T22:58:53.369Z,15.70
2023-10-09T23:01:29.870Z,15.70
2023-10-09T23:04:14.841Z,15.70
2023-10-09T23:06:45.301Z,15.70
2023-10-09T23:09:31.780Z,15.70
2023-10-09T23:12:00.638Z,15.70
2023-10-09T23:14:28.362Z,15.70
2023-10-09T23:17:02.410Z,15.70
2023-10-09T23:19:35.520Z,15.80
2023-10-09T23:22:08.605Z,15.80
2023-10-09T23:25:08.787Z,15.80
2023-10-09T23:27:39.530Z,15.80
2023-10-09T23:30:11.659Z,15.80
2023-10-09T23:32:47.776Z,15.80
2023-10-09T23:35:21.440Z,15.80
2023-10-09T23:38:07.197Z,15.80
2023-10-09T23:40:41.469Z,15.80
2023-10-09T23:43:14.897Z,15.70
2023-10-09T23:45:42.421Z,17.00
2023-10-09T23:48:15.835Z,15.70
2023-10-09T23:50:45.269Z,15.70
2023-10-09T23:53:16.062Z,15.70
2023-10-09T23:55:53.025Z,15.70
2023-10-09T23:58:20.309Z,15.60
